Airfield :
LOGIN :

Register | Disclaimer

   EN    FR    IT 

 










Legend :    VFR   Marginal VFR   IFR   Intensive IFR   Very Intensive IFR
Visi :
Ceiling :
>= 8 km
>= 3000ft
5 to 8 km
1000 to 3000 ft
1500m to 5 km
500 to 1000 ft
800 to 1500m
200 to 500 ft
< 800m
< 200 ft
Symbols :   Thunderstorms  Fog  Heavy snow  Heavy precipitations  Wind > 20 kt
SIGMETs :     Misc.  Thunderstorms  Icing  Turbulence  Mountain Waves  Volcanic Ashes







- Airport Elevation : 1079 ft


ETIK - Illesheim Air Base

CURRENT METAR :
  • 161656Z AUTO 23003KT 9999 SCT080 30/10 A2997 RMK AO2 SLP138 T02990099 $

EXPIRED METARs :
  • 161557Z AUTO 13010KT 9999 SCT080 30/10 A2996 RMK AO2 WSHFT 57 SLP135 $
  • 161556Z AUTO 05010KT 9999 SCT080 30/10 A2997 RMK AO2 SLP138 T02990104 $
  • 161456Z AUTO 22004KT 9999 FEW080 31/10 A2999 RMK AO2 SLP144 T03070101 57016 $

TAF TAF ETIK
Valid from the 16 at 13:00 until the 17 at 19:00 UTC


161259Z 1613/1719 16009KT 9999 FEW050 QNH2996INS
BECMG 1706/1707 VRB06KT 9999 FEW080 QNH2989INS
BECMG 1717/1718 VRB06KT 8000 -SHRA BKN060 QNH2995INS TX31/1713Z TN15/1704Z
No reported NOTAMs for that airfield.



MET'MAP, your aeronautical weather chart ! - Copyright ORBIFLY December 2007 - Disclaimer

ORBIFLY MET'MAP TEAM :

Programming & Development : Alexandra Zaïnal
Concept & Development : Baudouin d'Aumeries
Co-Development & Prog : Marc-Olivier Méhu
Technical & hardware support : Manuel Goepfert

Contact : metmap@orbifly.com




SOURCES & CREDITS :

   NOAA